createdAt,value
2019-01-31T00:00:12.857Z,4.65
2019-01-31T00:05:18.849Z,2.61
2019-01-31T00:10:24.863Z,3.56
2019-01-31T00:15:30.937Z,2.48
2019-01-31T00:20:37.010Z,2.44
2019-01-31T00:25:43.090Z,2.37
2019-01-31T00:30:49.086Z,2.94
2019-01-31T00:35:55.072Z,2.39
2019-01-31T00:41:01.078Z,2.37
2019-01-31T00:46:07.050Z,2.55
2019-01-31T00:51:13.043Z,2.64
2019-01-31T00:56:19.305Z,2.35
2019-01-31T01:01:25.301Z,2.43
2019-01-31T01:06:31.352Z,2.50
2019-01-31T01:11:37.389Z,2.35
2019-01-31T01:16:43.338Z,3.75
2019-01-31T01:21:49.317Z,2.44
2019-01-31T01:26:55.309Z,2.35
2019-01-31T01:32:01.298Z,4.34
2019-01-31T01:37:07.321Z,4.61
2019-01-31T01:42:13.329Z,2.77
2019-01-31T01:47:19.297Z,4.63
2019-01-31T01:52:25.300Z,4.89
2019-01-31T01:57:31.314Z,3.54
2019-01-31T02:02:37.308Z,3.14
2019-01-31T02:07:43.283Z,4.72
2019-01-31T02:12:49.285Z,4.50
2019-01-31T02:17:55.285Z,3.33
2019-01-31T02:23:01.283Z,3.29
2019-01-31T02:28:07.284Z,3.50
2019-01-31T02:33:13.265Z,4.70
2019-01-31T02:38:19.237Z,4.22
2019-01-31T02:43:25.229Z,4.41
2019-01-31T02:48:31.212Z,3.12
2019-01-31T02:53:37.190Z,3.08
2019-01-31T02:58:43.323Z,3.25
2019-01-31T03:03:49.305Z,5.31
2019-01-31T03:08:55.305Z,3.51
2019-01-31T03:14:09.916Z,3.30
2019-01-31T03:19:06.759Z,3.68
2019-01-31T03:24:12.744Z,3.62
2019-01-31T03:29:18.737Z,3.64
2019-01-31T03:34:24.728Z,5.87
2019-01-31T03:39:30.725Z,3.87
2019-01-31T03:44:36.699Z,3.73
2019-01-31T03:49:42.772Z,4.45
2019-01-31T03:54:48.757Z,4.07
2019-01-31T03:59:54.732Z,3.86
2019-01-31T04:05:00.735Z,3.83
2019-01-31T04:10:18.407Z,4.37
2019-01-31T04:15:12.253Z,4.28
2019-01-31T04:20:18.265Z,4.63
2019-01-31T04:25:24.265Z,4.76
2019-01-31T04:30:30.288Z,3.84
2019-01-31T04:35:36.256Z,6.16
2019-01-31T04:40:42.214Z,4.30
2019-01-31T04:45:48.308Z,4.08
2019-01-31T04:50:54.328Z,6.41
2019-01-31T04:56:00.323Z,3.98
2019-01-31T05:01:06.402Z,4.43
2019-01-31T05:06:12.378Z,4.93
2019-01-31T05:11:18.451Z,4.83
2019-01-31T05:16:24.426Z,4.94
2019-01-31T05:21:30.467Z,7.65
2019-01-31T05:26:36.551Z,5.28
2019-01-31T05:31:42.559Z,5.76
2019-01-31T05:36:48.541Z,5.93
2019-01-31T05:41:54.554Z,6.55
2019-01-31T05:47:00.591Z,6.60
2019-01-31T05:52:06.681Z,6.76
2019-01-31T05:57:12.665Z,6.89
2019-01-31T06:02:18.740Z,6.46
2019-01-31T06:07:24.758Z,6.52
2019-01-31T06:12:30.824Z,10.81
2019-01-31T06:17:36.801Z,6.37
2019-01-31T06:22:43.488Z,6.51
2019-01-31T06:27:49.545Z,7.34
2019-01-31T06:32:55.543Z,6.81
2019-01-31T06:38:01.553Z,7.50
2019-01-31T06:43:07.551Z,7.17
2019-01-31T06:48:13.617Z,7.65
2019-01-31T06:53:19.604Z,7.18
2019-01-31T06:58:25.820Z,6.76
2019-01-31T07:03:31.859Z,6.43
2019-01-31T07:08:38.052Z,6.47
2019-01-31T07:13:44.241Z,7.64
2019-01-31T07:18:50.235Z,7.50
2019-01-31T07:23:56.287Z,10.13
2019-01-31T07:29:02.334Z,7.25
2019-01-31T07:34:08.379Z,7.43
2019-01-31T07:39:14.481Z,10.95
2019-01-31T07:44:20.540Z,7.21
2019-01-31T07:49:26.612Z,7.19
2019-01-31T07:54:32.604Z,6.67
2019-01-31T07:59:38.624Z,7.10
2019-01-31T08:04:44.660Z,6.36
2019-01-31T08:09:50.690Z,6.48
2019-01-31T08:14:56.792Z,8.90
2019-01-31T08:20:02.827Z,6.26
2019-01-31T08:25:08.914Z,6.11
2019-01-31T08:30:15.017Z,9.61
2019-01-31T08:35:21.169Z,5.26
2019-01-31T08:40:27.177Z,9.98
2019-01-31T08:45:33.315Z,6.06
2019-01-31T08:50:39.302Z,6.17
2019-01-31T08:55:47.508Z,8.02
2019-01-31T09:00:50.907Z,4.64
2019-01-31T09:05:56.988Z,5.01
2019-01-31T09:11:03.058Z,4.10
2019-01-31T09:16:09.132Z,5.03
2019-01-31T09:21:15.145Z,5.14
2019-01-31T09:26:21.164Z,8.11
2019-01-31T09:31:27.211Z,5.01
2019-01-31T09:36:33.261Z,5.24
2019-01-31T09:41:39.409Z,8.01
2019-01-31T09:46:45.437Z,6.09
2019-01-31T09:51:51.527Z,5.08
2019-01-31T09:56:57.795Z,4.26
2019-01-31T10:02:03.846Z,4.90
2019-01-31T10:07:09.942Z,9.17
2019-01-31T10:12:16.170Z,5.60
2019-01-31T10:17:22.085Z,4.38
2019-01-31T10:22:28.123Z,7.47
2019-01-31T10:27:34.190Z,4.15
2019-01-31T10:32:40.230Z,4.71
2019-01-31T10:37:46.281Z,5.11
2019-01-31T10:42:52.446Z,7.95
2019-01-31T10:47:58.430Z,5.83
2019-01-31T10:53:04.455Z,9.98
2019-01-31T10:58:10.434Z,9.16
2019-01-31T11:03:16.484Z,9.04
2019-01-31T11:08:22.522Z,6.67
2019-01-31T11:13:28.525Z,9.09
2019-01-31T11:18:34.557Z,6.79
2019-01-31T11:23:40.583Z,5.87
2019-01-31T11:28:46.680Z,6.23
2019-01-31T11:33:52.668Z,6.34
2019-01-31T11:39:00.176Z,7.56
2019-01-31T11:44:04.209Z,7.51
2019-01-31T11:49:10.326Z,6.79
2019-01-31T11:54:16.451Z,7.37
2019-01-31T11:59:22.598Z,12.45
2019-01-31T12:04:28.701Z,8.06
2019-01-31T12:09:34.822Z,11.34
2019-01-31T12:14:40.824Z,11.97
2019-01-31T12:19:46.866Z,7.11
2019-01-31T12:24:52.862Z,13.05
2019-01-31T12:29:58.879Z,8.46
2019-01-31T12:35:04.845Z,8.26
2019-01-31T12:40:10.839Z,8.64
2019-01-31T12:45:16.857Z,8.61
2019-01-31T12:50:22.948Z,8.20
2019-01-31T12:55:29.020Z,8.96
2019-01-31T13:00:36.104Z,8.76
2019-01-31T13:05:42.243Z,9.01
2019-01-31T13:10:48.267Z,13.27
2019-01-31T13:15:54.394Z,8.54
2019-01-31T13:21:00.423Z,12.15
2019-01-31T13:26:06.437Z,8.39
2019-01-31T13:31:12.478Z,9.93
2019-01-31T13:36:18.509Z,11.55
2019-01-31T13:41:24.734Z,11.61
2019-01-31T13:46:30.775Z,8.88
2019-01-31T13:51:36.742Z,10.38
2019-01-31T13:56:45.673Z,11.71
2019-01-31T14:01:48.371Z,10.23
2019-01-31T14:06:54.339Z,13.87
2019-01-31T14:12:00.331Z,10.28
2019-01-31T14:17:06.333Z,10.74
2019-01-31T14:22:12.305Z,10.03
2019-01-31T14:27:18.323Z,10.04
2019-01-31T14:32:24.372Z,12.74
2019-01-31T14:37:30.555Z,17.45
2019-01-31T14:42:39.774Z,10.19
2019-01-31T14:47:45.947Z,8.49
2019-01-31T14:52:51.974Z,9.14
2019-01-31T14:57:58.032Z,9.21
2019-01-31T15:03:03.982Z,13.02
2019-01-31T15:08:09.982Z,8.06
2019-01-31T15:13:16.049Z,12.80
2019-01-31T15:18:22.079Z,14.11
2019-01-31T15:23:28.150Z,9.54
2019-01-31T15:28:34.221Z,14.39
2019-01-31T15:33:40.298Z,10.63
2019-01-31T15:38:46.311Z,10.26
2019-01-31T15:43:56.084Z,16.56
2019-01-31T15:49:02.092Z,10.04
2019-01-31T15:54:08.255Z,10.48
2019-01-31T15:59:14.318Z,12.36
2019-01-31T16:04:20.977Z,11.39
2019-01-31T16:09:27.255Z,15.72
2019-01-31T16:14:33.941Z,11.56
2019-01-31T16:19:40.137Z,15.29
2019-01-31T16:24:46.197Z,10.45
2019-01-31T16:29:52.304Z,15.12
2019-01-31T16:34:58.398Z,12.51
2019-01-31T16:40:04.425Z,11.25
2019-01-31T16:45:10.550Z,16.30
2019-01-31T16:50:17.527Z,10.59
2019-01-31T16:55:23.880Z,9.29
2019-01-31T17:00:30.174Z,13.43
2019-01-31T17:05:36.271Z,13.68
2019-01-31T17:10:42.337Z,9.75
2019-01-31T17:15:48.363Z,10.21
2019-01-31T17:20:55.013Z,16.54
2019-01-31T17:26:01.161Z,11.03
2019-01-31T17:31:07.253Z,15.51
2019-01-31T17:36:13.465Z,11.01
2019-01-31T17:41:19.612Z,10.29
2019-01-31T17:46:25.711Z,11.36
2019-01-31T17:51:31.884Z,10.52
2019-01-31T17:56:38.029Z,9.75
2019-01-31T18:01:44.072Z,14.83
2019-01-31T18:06:50.316Z,11.92
2019-01-31T18:11:56.375Z,16.07
2019-01-31T18:17:02.471Z,9.93
2019-01-31T18:22:09.959Z,12.46
2019-01-31T18:27:15.955Z,8.54
2019-01-31T18:32:22.392Z,9.87
2019-01-31T18:37:28.427Z,13.82
2019-01-31T18:42:34.415Z,9.83
2019-01-31T18:47:40.487Z,7.35
2019-01-31T18:52:46.579Z,6.60
2019-01-31T18:57:52.643Z,9.55
2019-01-31T19:02:58.735Z,6.81
2019-01-31T19:08:08.618Z,12.01
2019-01-31T19:13:10.499Z,8.55
2019-01-31T19:18:16.520Z,7.95
2019-01-31T19:23:22.570Z,10.58
2019-01-31T19:28:28.615Z,9.25
2019-01-31T19:33:34.635Z,13.22
2019-01-31T19:38:40.843Z,9.33
2019-01-31T19:43:46.982Z,8.51
2019-01-31T19:48:53.083Z,9.27
2019-01-31T19:53:59.456Z,9.55
2019-01-31T19:59:06.743Z,9.71
2019-01-31T20:04:13.443Z,12.62
2019-01-31T20:09:18.454Z,7.39
2019-01-31T20:14:24.541Z,10.44
2019-01-31T20:19:30.954Z,7.77
2019-01-31T20:24:37.390Z,7.59
2019-01-31T20:29:43.620Z,8.60
2019-01-31T20:34:49.813Z,7.79
2019-01-31T20:39:55.978Z,8.38
2019-01-31T20:45:02.251Z,8.32
2019-01-31T20:50:08.274Z,9.03
2019-01-31T20:55:14.320Z,12.32
2019-01-31T21:00:20.551Z,9.46
2019-01-31T21:05:26.596Z,10.18
2019-01-31T21:10:32.707Z,9.78
2019-01-31T21:15:38.983Z,9.54
2019-01-31T21:20:45.102Z,9.90
2019-01-31T21:25:51.289Z,9.93
2019-01-31T21:30:57.342Z,11.19
2019-01-31T21:36:03.522Z,10.35
2019-01-31T21:41:09.591Z,11.69
2019-01-31T21:46:15.601Z,15.87
2019-01-31T21:51:21.684Z,10.09
2019-01-31T21:56:27.744Z,9.65
2019-01-31T22:01:33.798Z,9.28
2019-01-31T22:06:40.105Z,8.88
2019-01-31T22:11:46.164Z,8.38
2019-01-31T22:16:52.228Z,8.43
2019-01-31T22:21:58.278Z,9.21
2019-01-31T22:27:04.308Z,8.99
2019-01-31T22:32:10.439Z,8.20
2019-01-31T22:37:16.490Z,7.17
2019-01-31T22:42:22.612Z,10.33
2019-01-31T22:47:28.644Z,6.33
2019-01-31T22:52:34.652Z,9.04
2019-01-31T22:57:40.639Z,6.07
2019-01-31T23:02:46.686Z,5.51
2019-01-31T23:07:52.692Z,5.51
2019-01-31T23:12:58.818Z,5.59
2019-01-31T23:18:04.878Z,7.51
2019-01-31T23:23:10.907Z,4.81
2019-01-31T23:28:16.894Z,4.81
2019-01-31T23:33:22.865Z,7.54
2019-01-31T23:38:28.829Z,6.10
2019-01-31T23:43:34.802Z,5.52
2019-01-31T23:48:40.776Z,5.37
2019-01-31T23:53:46.744Z,5.17
2019-01-31T23:58:52.740Z,4.96
